sensor_id;sensor_type;location;lat;lon;timestamp;P1;durP1;ratioP1;P2;durP2;ratioP2
25207;SDS011;13153;52.316;21.166;2022-11-15T00:00:50;38.42;;;22.45;;
25207;SDS011;13153;52.316;21.166;2022-11-15T00:03:18;35.20;;;22.30;;
25207;SDS011;13153;52.316;21.166;2022-11-15T00:05:46;34.22;;;21.58;;
25207;SDS011;13153;52.316;21.166;2022-11-15T00:08:13;34.85;;;22.13;;
25207;SDS011;13153;52.316;21.166;2022-11-15T00:10:39;34.80;;;22.23;;
25207;SDS011;13153;52.316;21.166;2022-11-15T00:13:08;37.53;;;23.15;;
25207;SDS011;13153;52.316;21.166;2022-11-15T00:15:41;35.50;;;22.48;;
25207;SDS011;13153;52.316;21.166;2022-11-15T00:18:10;37.22;;;23.70;;
25207;SDS011;13153;52.316;21.166;2022-11-15T00:20:38;36.20;;;23.45;;
25207;SDS011;13153;52.316;21.166;2022-11-15T00:23:04;37.97;;;23.13;;
25207;SDS011;13153;52.316;21.166;2022-11-15T00:25:31;41.00;;;23.70;;
25207;SDS011;13153;52.316;21.166;2022-11-15T00:27:57;45.10;;;25.20;;
25207;SDS011;13153;52.316;21.166;2022-11-15T00:30:25;38.92;;;23.58;;
25207;SDS011;13153;52.316;21.166;2022-11-15T00:32:52;38.20;;;23.63;;
25207;SDS011;13153;52.316;21.166;2022-11-15T00:35:18;36.13;;;23.60;;
25207;SDS011;13153;52.316;21.166;2022-11-15T00:37:44;38.10;;;23.90;;
25207;SDS011;13153;52.316;21.166;2022-11-15T00:40:12;37.65;;;24.10;;
25207;SDS011;13153;52.316;21.166;2022-11-15T00:42:38;38.45;;;23.67;;
25207;SDS011;13153;52.316;21.166;2022-11-15T00:45:05;35.72;;;23.02;;
25207;SDS011;13153;52.316;21.166;2022-11-15T00:47:31;41.58;;;25.48;;
25207;SDS011;13153;52.316;21.166;2022-11-15T00:49:57;37.35;;;22.85;;
25207;SDS011;13153;52.316;21.166;2022-11-15T00:52:23;40.50;;;24.55;;
25207;SDS011;13153;52.316;21.166;2022-11-15T00:54:49;40.03;;;24.50;;
25207;SDS011;13153;52.316;21.166;2022-11-15T00:57:14;39.72;;;24.25;;
25207;SDS011;13153;52.316;21.166;2022-11-15T00:59:40;42.65;;;25.08;;
25207;SDS011;13153;52.316;21.166;2022-11-15T01:02:06;40.13;;;25.35;;
25207;SDS011;13153;52.316;21.166;2022-11-15T01:04:31;41.17;;;25.23;;
25207;SDS011;13153;52.316;21.166;2022-11-15T01:06:57;40.25;;;25.58;;
25207;SDS011;13153;52.316;21.166;2022-11-15T01:09:23;42.05;;;25.58;;
25207;SDS011;13153;52.316;21.166;2022-11-15T01:11:48;44.03;;;25.95;;
25207;SDS011;13153;52.316;21.166;2022-11-15T01:14:14;42.45;;;25.95;;
25207;SDS011;13153;52.316;21.166;2022-11-15T01:16:40;46.42;;;27.20;;
25207;SDS011;13153;52.316;21.166;2022-11-15T01:19:07;44.45;;;26.95;;
25207;SDS011;13153;52.316;21.166;2022-11-15T01:21:33;43.63;;;26.38;;
25207;SDS011;13153;52.316;21.166;2022-11-15T01:23:59;42.30;;;25.70;;
25207;SDS011;13153;52.316;21.166;2022-11-15T01:26:24;42.30;;;26.05;;
25207;SDS011;13153;52.316;21.166;2022-11-15T01:28:50;45.30;;;27.13;;
25207;SDS011;13153;52.316;21.166;2022-11-15T01:31:20;46.08;;;27.67;;
25207;SDS011;13153;52.316;21.166;2022-11-15T01:33:47;48.33;;;28.13;;
25207;SDS011;13153;52.316;21.166;2022-11-15T01:36:14;44.33;;;27.25;;
25207;SDS011;13153;52.316;21.166;2022-11-15T01:38:55;48.58;;;29.42;;
25207;SDS011;13153;52.316;21.166;2022-11-15T01:41:23;47.63;;;26.95;;
25207;SDS011;13153;52.316;21.166;2022-11-15T01:43:53;44.25;;;28.02;;
25207;SDS011;13153;52.316;21.166;2022-11-15T01:46:33;46.80;;;29.10;;
25207;SDS011;13153;52.316;21.166;2022-11-15T01:49:02;50.28;;;28.80;;
25207;SDS011;13153;52.316;21.166;2022-11-15T01:51:36;45.50;;;27.08;;
25207;SDS011;13153;52.316;21.166;2022-11-15T01:54:06;47.28;;;29.30;;
25207;SDS011;13153;52.316;21.166;2022-11-15T01:56:49;47.67;;;27.80;;
25207;SDS011;13153;52.316;21.166;2022-11-15T01:59:30;49.80;;;27.88;;
25207;SDS011;13153;52.316;21.166;2022-11-15T02:01:56;49.97;;;27.88;;
25207;SDS011;13153;52.316;21.166;2022-11-15T02:04:24;49.20;;;28.73;;
25207;SDS011;13153;52.316;21.166;2022-11-15T02:06:54;51.10;;;30.02;;
25207;SDS011;13153;52.316;21.166;2022-11-15T02:09:20;48.58;;;29.08;;
25207;SDS011;13153;52.316;21.166;2022-11-15T02:11:46;56.90;;;30.05;;
25207;SDS011;13153;52.316;21.166;2022-11-15T02:14:15;55.10;;;31.35;;
25207;SDS011;13153;52.316;21.166;2022-11-15T02:20:29;55.28;;;31.30;;
25207;SDS011;13153;52.316;21.166;2022-11-15T02:23:17;54.22;;;29.77;;
25207;SDS011;13153;52.316;21.166;2022-11-15T02:26:26;61.13;;;32.20;;
25207;SDS011;13153;52.316;21.166;2022-11-15T02:32:15;57.28;;;31.05;;
25207;SDS011;13153;52.316;21.166;2022-11-15T02:34:57;59.38;;;32.90;;
25207;SDS011;13153;52.316;21.166;2022-11-15T02:37:33;56.13;;;32.67;;
25207;SDS011;13153;52.316;21.166;2022-11-15T02:43:22;60.53;;;32.50;;
25207;SDS011;13153;52.316;21.166;2022-11-15T02:49:29;65.03;;;34.75;;
25207;SDS011;13153;52.316;21.166;2022-11-15T02:51:59;64.28;;;35.25;;
25207;SDS011;13153;52.316;21.166;2022-11-15T02:54:28;64.38;;;34.33;;
25207;SDS011;13153;52.316;21.166;2022-11-15T02:56:59;62.88;;;33.53;;
25207;SDS011;13153;52.316;21.166;2022-11-15T02:59:41;63.90;;;34.10;;
25207;SDS011;13153;52.316;21.166;2022-11-15T03:06:01;64.85;;;33.95;;
25207;SDS011;13153;52.316;21.166;2022-11-15T03:11:29;65.70;;;34.83;;
25207;SDS011;13153;52.316;21.166;2022-11-15T03:19:44;64.95;;;36.35;;
25207;SDS011;13153;52.316;21.166;2022-11-15T03:22:17;68.93;;;34.55;;
25207;SDS011;13153;52.316;21.166;2022-11-15T03:24:50;65.17;;;35.40;;
25207;SDS011;13153;52.316;21.166;2022-11-15T03:27:25;64.47;;;34.72;;
25207;SDS011;13153;52.316;21.166;2022-11-15T03:29:59;60.97;;;32.33;;
25207;SDS011;13153;52.316;21.166;2022-11-15T03:32:31;61.75;;;32.28;;
25207;SDS011;13153;52.316;21.166;2022-11-15T03:35:07;62.10;;;33.20;;
25207;SDS011;13153;52.316;21.166;2022-11-15T03:37:51;62.08;;;33.20;;
25207;SDS011;13153;52.316;21.166;2022-11-15T03:40:41;61.08;;;33.28;;
25207;SDS011;13153;52.316;21.166;2022-11-15T03:46:14;62.58;;;32.00;;
25207;SDS011;13153;52.316;21.166;2022-11-15T03:48:51;61.35;;;32.10;;
25207;SDS011;13153;52.316;21.166;2022-11-15T03:51:28;66.07;;;33.92;;
25207;SDS011;13153;52.316;21.166;2022-11-15T03:53:55;66.47;;;33.65;;
25207;SDS011;13153;52.316;21.166;2022-11-15T03:56:20;62.75;;;33.95;;
25207;SDS011;13153;52.316;21.166;2022-11-15T03:58:46;67.95;;;36.10;;
25207;SDS011;13153;52.316;21.166;2022-11-15T04:01:12;63.85;;;33.58;;
25207;SDS011;13153;52.316;21.166;2022-11-15T04:03:37;69.05;;;35.35;;
25207;SDS011;13153;52.316;21.166;2022-11-15T04:06:03;64.28;;;34.25;;
25207;SDS011;13153;52.316;21.166;2022-11-15T04:08:29;69.43;;;36.55;;
25207;SDS011;13153;52.316;21.166;2022-11-15T04:10:55;69.47;;;35.83;;
25207;SDS011;13153;52.316;21.166;2022-11-15T04:13:20;69.22;;;35.90;;
25207;SDS011;13153;52.316;21.166;2022-11-15T04:15:46;72.93;;;36.53;;
25207;SDS011;13153;52.316;21.166;2022-11-15T04:18:12;70.63;;;33.78;;
25207;SDS011;13153;52.316;21.166;2022-11-15T04:20:37;66.32;;;32.10;;
25207;SDS011;13153;52.316;21.166;2022-11-15T04:23:22;74.97;;;37.40;;
25207;SDS011;13153;52.316;21.166;2022-11-15T04:26:25;73.97;;;35.83;;
25207;SDS011;13153;52.316;21.166;2022-11-15T04:28:51;74.95;;;37.78;;
25207;SDS011;13153;52.316;21.166;2022-11-15T04:31:35;79.23;;;38.40;;
25207;SDS011;13153;52.316;21.166;2022-11-15T04:34:01;72.43;;;36.03;;
25207;SDS011;13153;52.316;21.166;2022-11-15T04:36:26;70.13;;;34.47;;
25207;SDS011;13153;52.316;21.166;2022-11-15T04:39:10;69.30;;;34.70;;
25207;SDS011;13153;52.316;21.166;2022-11-15T04:41:36;73.80;;;35.17;;
25207;SDS011;13153;52.316;21.166;2022-11-15T04:44:02;71.40;;;35.95;;
25207;SDS011;13153;52.316;21.166;2022-11-15T04:46:27;68.75;;;33.25;;
25207;SDS011;13153;52.316;21.166;2022-11-15T04:48:53;73.65;;;37.75;;
25207;SDS011;13153;52.316;21.166;2022-11-15T04:51:20;70.80;;;36.70;;
25207;SDS011;13153;52.316;21.166;2022-11-15T04:53:46;72.18;;;34.55;;
25207;SDS011;13153;52.316;21.166;2022-11-15T04:56:12;73.20;;;34.50;;
25207;SDS011;13153;52.316;21.166;2022-11-15T04:58:38;73.55;;;37.05;;
25207;SDS011;13153;52.316;21.166;2022-11-15T05:01:10;75.78;;;37.28;;
25207;SDS011;13153;52.316;21.166;2022-11-15T05:03:39;70.25;;;35.13;;
25207;SDS011;13153;52.316;21.166;2022-11-15T05:06:24;68.75;;;35.58;;
25207;SDS011;13153;52.316;21.166;2022-11-15T05:08:50;69.97;;;34.72;;
25207;SDS011;13153;52.316;21.166;2022-11-15T05:11:16;66.55;;;34.55;;
25207;SDS011;13153;52.316;21.166;2022-11-15T05:13:42;68.82;;;35.60;;
25207;SDS011;13153;52.316;21.166;2022-11-15T05:16:08;69.03;;;35.75;;
25207;SDS011;13153;52.316;21.166;2022-11-15T05:18:34;67.60;;;33.88;;
25207;SDS011;13153;52.316;21.166;2022-11-15T05:21:03;71.55;;;34.55;;
25207;SDS011;13153;52.316;21.166;2022-11-15T05:23:31;69.70;;;33.63;;
25207;SDS011;13153;52.316;21.166;2022-11-15T05:26:00;68.40;;;35.03;;
25207;SDS011;13153;52.316;21.166;2022-11-15T05:28:28;74.65;;;37.65;;
25207;SDS011;13153;52.316;21.166;2022-11-15T05:31:00;72.55;;;36.35;;
25207;SDS011;13153;52.316;21.166;2022-11-15T05:33:35;78.22;;;37.17;;
25207;SDS011;13153;52.316;21.166;2022-11-15T05:38:34;73.15;;;36.60;;
25207;SDS011;13153;52.316;21.166;2022-11-15T05:41:00;80.15;;;38.40;;
25207;SDS011;13153;52.316;21.166;2022-11-15T05:43:29;74.28;;;37.08;;
25207;SDS011;13153;52.316;21.166;2022-11-15T05:45:59;80.10;;;40.58;;
25207;SDS011;13153;52.316;21.166;2022-11-15T05:48:28;76.03;;;35.90;;
25207;SDS011;13153;52.316;21.166;2022-11-15T05:50:53;80.45;;;39.13;;
25207;SDS011;13153;52.316;21.166;2022-11-15T05:53:21;76.18;;;37.35;;
25207;SDS011;13153;52.316;21.166;2022-11-15T05:55:50;84.07;;;40.20;;
25207;SDS011;13153;52.316;21.166;2022-11-15T05:58:17;85.55;;;39.10;;
25207;SDS011;13153;52.316;21.166;2022-11-15T06:00:45;81.57;;;36.92;;
25207;SDS011;13153;52.316;21.166;2022-11-15T06:03:11;76.55;;;36.97;;
25207;SDS011;13153;52.316;21.166;2022-11-15T06:05:39;81.47;;;37.17;;
25207;SDS011;13153;52.316;21.166;2022-11-15T06:08:05;79.55;;;37.38;;
25207;SDS011;13153;52.316;21.166;2022-11-15T06:10:31;76.72;;;35.08;;
25207;SDS011;13153;52.316;21.166;2022-11-15T06:12:58;81.18;;;38.03;;
25207;SDS011;13153;52.316;21.166;2022-11-15T06:15:27;74.43;;;35.33;;
25207;SDS011;13153;52.316;21.166;2022-11-15T06:17:55;77.78;;;35.95;;
25207;SDS011;13153;52.316;21.166;2022-11-15T06:20:25;86.35;;;39.08;;
25207;SDS011;13153;52.316;21.166;2022-11-15T06:22:56;82.28;;;39.63;;
25207;SDS011;13153;52.316;21.166;2022-11-15T06:25:24;81.35;;;36.63;;
25207;SDS011;13153;52.316;21.166;2022-11-15T06:27:57;86.50;;;38.35;;
25207;SDS011;13153;52.316;21.166;2022-11-15T06:30:24;87.50;;;37.23;;
25207;SDS011;13153;52.316;21.166;2022-11-15T06:32:52;84.18;;;39.70;;
25207;SDS011;13153;52.316;21.166;2022-11-15T06:35:25;83.43;;;38.45;;
25207;SDS011;13153;52.316;21.166;2022-11-15T06:37:51;83.13;;;37.13;;
25207;SDS011;13153;52.316;21.166;2022-11-15T06:40:17;84.97;;;37.47;;
25207;SDS011;13153;52.316;21.166;2022-11-15T06:42:43;85.30;;;39.42;;
25207;SDS011;13153;52.316;21.166;2022-11-15T06:45:08;78.97;;;36.38;;
25207;SDS011;13153;52.316;21.166;2022-11-15T06:47:34;81.57;;;34.28;;
25207;SDS011;13153;52.316;21.166;2022-11-15T06:50:00;79.57;;;36.30;;
25207;SDS011;13153;52.316;21.166;2022-11-15T06:52:25;82.88;;;35.78;;
25207;SDS011;13153;52.316;21.166;2022-11-15T06:54:51;79.57;;;35.00;;
25207;SDS011;13153;52.316;21.166;2022-11-15T06:57:17;86.30;;;37.13;;
25207;SDS011;13153;52.316;21.166;2022-11-15T06:59:43;93.28;;;38.55;;
25207;SDS011;13153;52.316;21.166;2022-11-15T07:02:12;91.40;;;39.28;;
25207;SDS011;13153;52.316;21.166;2022-11-15T07:04:38;89.43;;;37.80;;
25207;SDS011;13153;52.316;21.166;2022-11-15T07:07:04;81.00;;;36.25;;
25207;SDS011;13153;52.316;21.166;2022-11-15T07:09:30;92.35;;;39.38;;
25207;SDS011;13153;52.316;21.166;2022-11-15T07:11:56;91.57;;;38.20;;
25207;SDS011;13153;52.316;21.166;2022-11-15T07:14:21;84.43;;;37.92;;
25207;SDS011;13153;52.316;21.166;2022-11-15T07:16:47;81.97;;;35.28;;
25207;SDS011;13153;52.316;21.166;2022-11-15T07:19:13;82.25;;;35.00;;
25207;SDS011;13153;52.316;21.166;2022-11-15T07:21:38;87.80;;;39.53;;
25207;SDS011;13153;52.316;21.166;2022-11-15T07:24:04;85.70;;;37.08;;
25207;SDS011;13153;52.316;21.166;2022-11-15T07:26:30;91.97;;;38.85;;
25207;SDS011;13153;52.316;21.166;2022-11-15T07:28:56;86.32;;;35.83;;
25207;SDS011;13153;52.316;21.166;2022-11-15T07:31:22;87.75;;;37.05;;
25207;SDS011;13153;52.316;21.166;2022-11-15T07:33:47;82.93;;;35.40;;
25207;SDS011;13153;52.316;21.166;2022-11-15T07:36:13;80.68;;;33.83;;
25207;SDS011;13153;52.316;21.166;2022-11-15T07:38:39;79.82;;;33.88;;
25207;SDS011;13153;52.316;21.166;2022-11-15T07:41:05;77.57;;;32.55;;
25207;SDS011;13153;52.316;21.166;2022-11-15T07:43:32;72.85;;;32.88;;
25207;SDS011;13153;52.316;21.166;2022-11-15T07:45:58;84.45;;;34.60;;
25207;SDS011;13153;52.316;21.166;2022-11-15T07:48:34;80.82;;;33.15;;
25207;SDS011;13153;52.316;21.166;2022-11-15T07:51:01;74.85;;;32.85;;
25207;SDS011;13153;52.316;21.166;2022-11-15T07:53:27;76.95;;;32.05;;
25207;SDS011;13153;52.316;21.166;2022-11-15T07:55:53;75.82;;;33.05;;
25207;SDS011;13153;52.316;21.166;2022-11-15T07:58:19;74.13;;;31.00;;
25207;SDS011;13153;52.316;21.166;2022-11-15T08:00:45;69.07;;;31.73;;
25207;SDS011;13153;52.316;21.166;2022-11-15T08:03:11;72.55;;;31.20;;
25207;SDS011;13153;52.316;21.166;2022-11-15T08:05:40;68.15;;;30.67;;
25207;SDS011;13153;52.316;21.166;2022-11-15T08:08:08;73.40;;;32.17;;
25207;SDS011;13153;52.316;21.166;2022-11-15T08:10:36;70.28;;;30.50;;
25207;SDS011;13153;52.316;21.166;2022-11-15T08:13:09;75.28;;;33.65;;
25207;SDS011;13153;52.316;21.166;2022-11-15T08:15:37;75.45;;;33.53;;
25207;SDS011;13153;52.316;21.166;2022-11-15T08:18:08;76.55;;;33.08;;
25207;SDS011;13153;52.316;21.166;2022-11-15T08:20:38;79.40;;;34.92;;
25207;SDS011;13153;52.316;21.166;2022-11-15T08:23:05;76.72;;;35.20;;
25207;SDS011;13153;52.316;21.166;2022-11-15T08:25:33;77.13;;;33.40;;
25207;SDS011;13153;52.316;21.166;2022-11-15T08:28:01;76.00;;;32.70;;
25207;SDS011;13153;52.316;21.166;2022-11-15T08:30:30;80.80;;;34.92;;
25207;SDS011;13153;52.316;21.166;2022-11-15T08:32:59;78.03;;;33.03;;
25207;SDS011;13153;52.316;21.166;2022-11-15T08:35:25;81.15;;;33.97;;
25207;SDS011;13153;52.316;21.166;2022-11-15T08:37:52;79.50;;;33.88;;
25207;SDS011;13153;52.316;21.166;2022-11-15T08:40:18;81.72;;;34.47;;
25207;SDS011;13153;52.316;21.166;2022-11-15T08:42:47;77.57;;;34.75;;
25207;SDS011;13153;52.316;21.166;2022-11-15T08:45:14;72.80;;;31.65;;
25207;SDS011;13153;52.316;21.166;2022-11-15T08:47:40;77.68;;;33.83;;
25207;SDS011;13153;52.316;21.166;2022-11-15T08:50:06;72.15;;;31.00;;
25207;SDS011;13153;52.316;21.166;2022-11-15T08:52:32;75.03;;;33.17;;
25207;SDS011;13153;52.316;21.166;2022-11-15T08:54:58;73.45;;;30.98;;
25207;SDS011;13153;52.316;21.166;2022-11-15T08:57:24;69.40;;;31.15;;
25207;SDS011;13153;52.316;21.166;2022-11-15T08:59:53;66.68;;;29.63;;
25207;SDS011;13153;52.316;21.166;2022-11-15T09:02:18;65.38;;;30.05;;
25207;SDS011;13153;52.316;21.166;2022-11-15T09:04:44;67.35;;;31.02;;
25207;SDS011;13153;52.316;21.166;2022-11-15T09:07:10;65.63;;;30.45;;
25207;SDS011;13153;52.316;21.166;2022-11-15T09:09:37;61.17;;;28.92;;
25207;SDS011;13153;52.316;21.166;2022-11-15T09:12:04;58.03;;;29.15;;
25207;SDS011;13153;52.316;21.166;2022-11-15T09:14:31;58.58;;;28.65;;
25207;SDS011;13153;52.316;21.166;2022-11-15T09:16:58;56.17;;;29.08;;
25207;SDS011;13153;52.316;21.166;2022-11-15T09:19:24;60.55;;;29.20;;
25207;SDS011;13153;52.316;21.166;2022-11-15T09:21:50;62.75;;;32.30;;
25207;SDS011;13153;52.316;21.166;2022-11-15T09:24:16;62.08;;;29.83;;
25207;SDS011;13153;52.316;21.166;2022-11-15T09:26:42;65.53;;;31.33;;
25207;SDS011;13153;52.316;21.166;2022-11-15T09:29:08;63.35;;;30.10;;
25207;SDS011;13153;52.316;21.166;2022-11-15T09:31:34;64.07;;;31.80;;
25207;SDS011;13153;52.316;21.166;2022-11-15T09:34:00;68.75;;;31.15;;
25207;SDS011;13153;52.316;21.166;2022-11-15T09:36:25;61.22;;;29.17;;
25207;SDS011;13153;52.316;21.166;2022-11-15T09:38:51;62.20;;;28.67;;
25207;SDS011;13153;52.316;21.166;2022-11-15T09:47:20;50.72;;;27.58;;
25207;SDS011;13153;52.316;21.166;2022-11-15T09:50:39;64.63;;;30.33;;
25207;SDS011;13153;52.316;21.166;2022-11-15T09:53:14;62.75;;;30.17;;
25207;SDS011;13153;52.316;21.166;2022-11-15T09:56:05;68.65;;;30.08;;
25207;SDS011;13153;52.316;21.166;2022-11-15T10:05:21;55.72;;;27.98;;
25207;SDS011;13153;52.316;21.166;2022-11-15T10:13:22;55.08;;;26.17;;
25207;SDS011;13153;52.316;21.166;2022-11-15T10:15:54;55.40;;;26.92;;
25207;SDS011;13153;52.316;21.166;2022-11-15T10:18:50;51.80;;;26.23;;
25207;SDS011;13153;52.316;21.166;2022-11-15T10:21:57;58.38;;;26.88;;
25207;SDS011;13153;52.316;21.166;2022-11-15T10:24:49;55.33;;;26.80;;
25207;SDS011;13153;52.316;21.166;2022-11-15T10:27:25;54.95;;;26.80;;
25207;SDS011;13153;52.316;21.166;2022-11-15T10:29:50;51.83;;;26.83;;
25207;SDS011;13153;52.316;21.166;2022-11-15T10:32:17;49.70;;;26.35;;
25207;SDS011;13153;52.316;21.166;2022-11-15T10:34:45;57.25;;;27.20;;
25207;SDS011;13153;52.316;21.166;2022-11-15T10:37:13;50.67;;;26.42;;
25207;SDS011;13153;52.316;21.166;2022-11-15T10:39:39;50.97;;;26.70;;
25207;SDS011;13153;52.316;21.166;2022-11-15T10:42:18;51.47;;;26.88;;
25207;SDS011;13153;52.316;21.166;2022-11-15T10:44:53;58.13;;;27.83;;
25207;SDS011;13153;52.316;21.166;2022-11-15T10:50:00;60.17;;;29.58;;
25207;SDS011;13153;52.316;21.166;2022-11-15T10:52:50;53.28;;;27.88;;
25207;SDS011;13153;52.316;21.166;2022-11-15T10:57:47;47.67;;;26.38;;
25207;SDS011;13153;52.316;21.166;2022-11-15T11:05:30;51.83;;;27.40;;
25207;SDS011;13153;52.316;21.166;2022-11-15T11:08:03;53.13;;;26.75;;
25207;SDS011;13153;52.316;21.166;2022-11-15T11:10:37;53.85;;;27.40;;
25207;SDS011;13153;52.316;21.166;2022-11-15T11:13:13;54.85;;;28.60;;
25207;SDS011;13153;52.316;21.166;2022-11-15T11:15:50;59.53;;;29.83;;
25207;SDS011;13153;52.316;21.166;2022-11-15T11:18:32;54.72;;;28.38;;
25207;SDS011;13153;52.316;21.166;2022-11-15T11:21:42;58.08;;;28.30;;
25207;SDS011;13153;52.316;21.166;2022-11-15T11:27:36;52.92;;;28.13;;
25207;SDS011;13153;52.316;21.166;2022-11-15T11:30:43;56.63;;;30.65;;
25207;SDS011;13153;52.316;21.166;2022-11-15T11:37:13;61.05;;;31.33;;
25207;SDS011;13153;52.316;21.166;2022-11-15T11:42:47;63.00;;;31.45;;
25207;SDS011;13153;52.316;21.166;2022-11-15T11:50:37;60.33;;;31.30;;
25207;SDS011;13153;52.316;21.166;2022-11-15T11:53:27;59.85;;;30.65;;
25207;SDS011;13153;52.316;21.166;2022-11-15T11:56:14;60.50;;;30.17;;
25207;SDS011;13153;52.316;21.166;2022-11-15T11:59:07;59.45;;;31.42;;
25207;SDS011;13153;52.316;21.166;2022-11-15T12:01:48;67.47;;;32.45;;
25207;SDS011;13153;52.316;21.166;2022-11-15T12:04:16;60.88;;;31.38;;
25207;SDS011;13153;52.316;21.166;2022-11-15T12:09:53;65.80;;;32.72;;
25207;SDS011;13153;52.316;21.166;2022-11-15T12:12:39;59.40;;;31.85;;
25207;SDS011;13153;52.316;21.166;2022-11-15T12:15:18;62.25;;;31.85;;
25207;SDS011;13153;52.316;21.166;2022-11-15T12:17:50;58.53;;;31.27;;
25207;SDS011;13153;52.316;21.166;2022-11-15T12:20:18;63.58;;;32.25;;
25207;SDS011;13153;52.316;21.166;2022-11-15T12:33:43;63.22;;;32.97;;
25207;SDS011;13153;52.316;21.166;2022-11-15T12:36:34;61.55;;;32.38;;
25207;SDS011;13153;52.316;21.166;2022-11-15T12:41:35;63.25;;;32.67;;
25207;SDS011;13153;52.316;21.166;2022-11-15T12:44:04;63.38;;;32.33;;
25207;SDS011;13153;52.316;21.166;2022-11-15T12:49:48;71.93;;;33.95;;
25207;SDS011;13153;52.316;21.166;2022-11-15T12:52:14;65.00;;;33.70;;
25207;SDS011;13153;52.316;21.166;2022-11-15T13:08:00;73.18;;;34.78;;
25207;SDS011;13153;52.316;21.166;2022-11-15T13:12:56;66.47;;;34.63;;
25207;SDS011;13153;52.316;21.166;2022-11-15T13:18:33;69.55;;;35.53;;
25207;SDS011;13153;52.316;21.166;2022-11-15T13:21:03;75.00;;;36.88;;
25207;SDS011;13153;52.316;21.166;2022-11-15T13:24:12;70.90;;;35.78;;
25207;SDS011;13153;52.316;21.166;2022-11-15T13:26:40;77.13;;;35.92;;
25207;SDS011;13153;52.316;21.166;2022-11-15T13:29:16;67.65;;;35.22;;
25207;SDS011;13153;52.316;21.166;2022-11-15T13:31:45;69.65;;;34.40;;
25207;SDS011;13153;52.316;21.166;2022-11-15T13:36:48;70.18;;;33.88;;
25207;SDS011;13153;52.316;21.166;2022-11-15T13:39:23;71.57;;;34.72;;
25207;SDS011;13153;52.316;21.166;2022-11-15T13:41:50;75.63;;;35.88;;
25207;SDS011;13153;52.316;21.166;2022-11-15T13:44:21;69.68;;;34.60;;
25207;SDS011;13153;52.316;21.166;2022-11-15T13:49:38;77.55;;;35.03;;
25207;SDS011;13153;52.316;21.166;2022-11-15T13:52:05;76.13;;;35.42;;
25207;SDS011;13153;52.316;21.166;2022-11-15T13:54:35;71.75;;;34.97;;
25207;SDS011;13153;52.316;21.166;2022-11-15T13:57:16;69.43;;;33.78;;
25207;SDS011;13153;52.316;21.166;2022-11-15T13:59:56;73.28;;;34.08;;
25207;SDS011;13153;52.316;21.166;2022-11-15T14:02:32;71.75;;;32.38;;
25207;SDS011;13153;52.316;21.166;2022-11-15T14:05:02;75.25;;;33.92;;
25207;SDS011;13153;52.316;21.166;2022-11-15T14:07:44;66.32;;;32.13;;
25207;SDS011;13153;52.316;21.166;2022-11-15T14:10:32;67.25;;;32.28;;
25207;SDS011;13153;52.316;21.166;2022-11-15T14:13:01;62.40;;;31.52;;
25207;SDS011;13153;52.316;21.166;2022-11-15T14:15:30;66.97;;;32.03;;
25207;SDS011;13153;52.316;21.166;2022-11-15T14:18:02;68.22;;;32.75;;
25207;SDS011;13153;52.316;21.166;2022-11-15T14:20:33;69.25;;;32.85;;
25207;SDS011;13153;52.316;21.166;2022-11-15T14:23:04;64.90;;;32.63;;
25207;SDS011;13153;52.316;21.166;2022-11-15T14:25:53;75.57;;;34.80;;
25207;SDS011;13153;52.316;21.166;2022-11-15T14:30:49;76.03;;;36.15;;
25207;SDS011;13153;52.316;21.166;2022-11-15T14:33:24;76.22;;;36.42;;
25207;SDS011;13153;52.316;21.166;2022-11-15T14:35:57;77.00;;;35.58;;
25207;SDS011;13153;52.316;21.166;2022-11-15T14:38:30;74.90;;;34.65;;
25207;SDS011;13153;52.316;21.166;2022-11-15T14:40:56;77.78;;;36.83;;
25207;SDS011;13153;52.316;21.166;2022-11-15T14:43:22;79.93;;;35.53;;
25207;SDS011;13153;52.316;21.166;2022-11-15T14:45:48;73.40;;;34.67;;
25207;SDS011;13153;52.316;21.166;2022-11-15T14:48:13;77.88;;;35.80;;
25207;SDS011;13153;52.316;21.166;2022-11-15T14:50:39;68.25;;;35.38;;
25207;SDS011;13153;52.316;21.166;2022-11-15T14:53:05;77.90;;;36.53;;
25207;SDS011;13153;52.316;21.166;2022-11-15T14:55:32;72.90;;;36.90;;
25207;SDS011;13153;52.316;21.166;2022-11-15T14:58:04;74.47;;;34.03;;
25207;SDS011;13153;52.316;21.166;2022-11-15T15:00:38;79.32;;;35.75;;
25207;SDS011;13153;52.316;21.166;2022-11-15T15:03:06;85.10;;;34.38;;
25207;SDS011;13153;52.316;21.166;2022-11-15T15:05:33;75.13;;;35.50;;
25207;SDS011;13153;52.316;21.166;2022-11-15T15:08:02;78.13;;;35.78;;
25207;SDS011;13153;52.316;21.166;2022-11-15T15:10:31;82.25;;;36.22;;
25207;SDS011;13153;52.316;21.166;2022-11-15T15:13:10;73.00;;;34.72;;
25207;SDS011;13153;52.316;21.166;2022-11-15T15:15:46;97.53;;;36.38;;
25207;SDS011;13153;52.316;21.166;2022-11-15T15:18:14;87.00;;;40.55;;
25207;SDS011;13153;52.316;21.166;2022-11-15T15:20:40;79.65;;;35.83;;
25207;SDS011;13153;52.316;21.166;2022-11-15T15:23:16;78.43;;;37.28;;
25207;SDS011;13153;52.316;21.166;2022-11-15T15:25:45;75.95;;;35.72;;
25207;SDS011;13153;52.316;21.166;2022-11-15T15:28:13;82.13;;;39.80;;
25207;SDS011;13153;52.316;21.166;2022-11-15T15:30:40;76.05;;;36.83;;
25207;SDS011;13153;52.316;21.166;2022-11-15T15:33:06;72.18;;;34.42;;
25207;SDS011;13153;52.316;21.166;2022-11-15T15:35:32;77.90;;;35.75;;
25207;SDS011;13153;52.316;21.166;2022-11-15T15:37:59;84.32;;;37.50;;
25207;SDS011;13153;52.316;21.166;2022-11-15T15:40:27;82.40;;;38.00;;
25207;SDS011;13153;52.316;21.166;2022-11-15T15:42:56;85.32;;;37.80;;
25207;SDS011;13153;52.316;21.166;2022-11-15T15:45:22;85.53;;;37.00;;
25207;SDS011;13153;52.316;21.166;2022-11-15T15:47:49;88.45;;;39.83;;
25207;SDS011;13153;52.316;21.166;2022-11-15T15:52:50;83.28;;;36.95;;
25207;SDS011;13153;52.316;21.166;2022-11-15T15:55:19;82.90;;;35.58;;
25207;SDS011;13153;52.316;21.166;2022-11-15T15:57:46;76.68;;;35.13;;
25207;SDS011;13153;52.316;21.166;2022-11-15T16:00:12;81.65;;;34.53;;
25207;SDS011;13153;52.316;21.166;2022-11-15T16:02:39;87.72;;;37.65;;
25207;SDS011;13153;52.316;21.166;2022-11-15T16:05:05;83.88;;;36.15;;
25207;SDS011;13153;52.316;21.166;2022-11-15T16:07:32;85.93;;;36.17;;
25207;SDS011;13153;52.316;21.166;2022-11-15T16:09:58;86.10;;;36.03;;
25207;SDS011;13153;52.316;21.166;2022-11-15T16:12:29;71.25;;;31.17;;
25207;SDS011;13153;52.316;21.166;2022-11-15T16:14:58;81.78;;;35.13;;
25207;SDS011;13153;52.316;21.166;2022-11-15T16:17:30;82.70;;;35.67;;
25207;SDS011;13153;52.316;21.166;2022-11-15T16:20:03;84.68;;;36.90;;
25207;SDS011;13153;52.316;21.166;2022-11-15T16:22:30;79.47;;;35.45;;
25207;SDS011;13153;52.316;21.166;2022-11-15T16:24:56;79.55;;;34.78;;
25207;SDS011;13153;52.316;21.166;2022-11-15T16:27:22;78.90;;;34.30;;
25207;SDS011;13153;52.316;21.166;2022-11-15T16:29:48;70.95;;;31.25;;
25207;SDS011;13153;52.316;21.166;2022-11-15T16:32:14;64.03;;;29.13;;